Time;durP1;ratioP1;P1;durP2;ratioP2;P2;SDS_P1;SDS_P2;PMS_P1;PMS_P2;Temp;Humidity;BMP_temperature;BMP_pressure;BME280_temperature;BME280_humidity;BME280_pressure;Samples;Min_cycle;Max_cycle;Signal;HPM_P1;HPM_P2
2023/09/13 00:00:07;;;;;;;46.03;22.98;;;;;;;;;;5111672;28;20047;-77
2023/09/13 00:02:34;;;;;;;46.95;24.88;;;;;;;;;;5095122;28;20043;-78
2023/09/13 00:05:00;;;;;;;54.65;24.77;;;;;;;;;;5100685;28;20016;-84
2023/09/13 00:07:26;;;;;;;54.65;26.23;;;;;;;;;;5088301;28;20020;-76
2023/09/13 00:09:52;;;;;;;48.70;26.67;;;;;;;;;;5095287;28;20013;-76
2023/09/13 00:12:18;;;;;;;55.90;27.55;;;;;;;;;;5083814;28;20024;-81
2023/09/13 00:14:44;;;;;;;54.42;28.10;;;;;;;;;;5083013;28;20040;-86
2023/09/13 00:17:15;;;;;;;53.63;28.55;;;;;;;;;;5081339;28;20136;-84
2023/09/13 00:19:41;;;;;;;57.00;27.33;;;;;;;;;;5099779;28;20028;-76
2023/09/13 00:22:07;;;;;;;56.00;28.00;;;;;;;;;;5096145;28;20015;-75
2023/09/13 00:24:35;;;;;;;56.15;28.95;;;;;;;;;;5097115;28;20032;-76
2023/09/13 00:27:01;;;;;;;60.38;28.92;;;;;;;;;;5095511;28;20044;-75
2023/09/13 00:29:31;;;;;;;57.10;28.25;;;;;;;;;;5096588;28;20023;-77
2023/09/13 00:31:57;;;;;;;58.60;28.80;;;;;;;;;;5094005;28;20059;-79
2023/09/13 00:34:25;;;;;;;50.13;27.55;;;;;;;;;;5093081;28;20031;-77
2023/09/13 00:36:51;;;;;;;60.45;28.75;;;;;;;;;;5089986;28;20032;-76
2023/09/13 00:39:17;;;;;;;57.85;28.15;;;;;;;;;;5088162;28;20032;-76
2023/09/13 00:41:43;;;;;;;53.63;27.75;;;;;;;;;;5088079;28;20036;-76
2023/09/13 00:44:09;;;;;;;58.20;28.60;;;;;;;;;;5090129;28;20472;-81
2023/09/13 00:46:36;;;;;;;63.45;30.77;;;;;;;;;;5083324;28;20036;-86
2023/09/13 00:49:03;;;;;;;54.28;29.42;;;;;;;;;;5093013;28;20062;-77
2023/09/13 00:51:29;;;;;;;60.13;28.33;;;;;;;;;;5080211;28;20035;-79
2023/09/13 00:53:55;;;;;;;56.75;28.30;;;;;;;;;;5108284;28;20096;-81
2023/09/13 00:56:22;;;;;;;52.30;29.13;;;;;;;;;;5104468;28;20123;-87
2023/09/13 00:58:48;;;;;;;50.05;28.25;;;;;;;;;;5096223;28;20032;-86
2023/09/13 01:01:20;;;;;;;52.03;26.88;;;;;;;;;;5078251;28;20039;-82
2023/09/13 01:03:46;;;;;;;47.13;26.08;;;;;;;;;;5077520;28;20028;-85
2023/09/13 01:06:12;;;;;;;47.78;25.20;;;;;;;;;;5092379;28;20036;-76
2023/09/13 01:08:42;;;;;;;49.05;26.83;;;;;;;;;;5094271;28;20028;-75
2023/09/13 01:11:09;;;;;;;47.80;25.25;;;;;;;;;;5092443;28;20024;-76
2023/09/13 01:13:35;;;;;;;55.67;26.85;;;;;;;;;;5085539;28;20093;-82
2023/09/13 01:16:20;;;;;;;45.53;25.60;;;;;;;;;;5085716;28;20060;-76
2023/09/13 01:18:49;;;;;;;51.75;25.70;;;;;;;;;;5085606;28;20051;-84
2023/09/13 01:21:15;;;;;;;52.22;25.83;;;;;;;;;;5085616;28;20024;-76
2023/09/13 01:23:51;;;;;;;55.20;26.25;;;;;;;;;;5104621;28;20063;-83
2023/09/13 01:26:32;;;;;;;48.08;25.70;;;;;;;;;;5106900;28;20074;-78
2023/09/13 01:28:59;;;;;;;57.83;30.67;;;;;;;;;;5084260;28;20027;-79
2023/09/13 01:31:27;;;;;;;61.25;28.83;;;;;;;;;;5095224;28;21894;-86
2023/09/13 01:33:53;;;;;;;54.65;28.65;;;;;;;;;;5084923;28;20016;-85
2023/09/13 01:36:21;;;;;;;51.90;27.42;;;;;;;;;;5072681;28;20111;-88
2023/09/13 01:38:52;;;;;;;53.95;26.95;;;;;;;;;;5068347;28;20086;-86
2023/09/13 01:41:21;;;;;;;58.80;28.73;;;;;;;;;;5088666;28;20027;-87
2023/09/13 01:43:53;;;;;;;58.72;27.95;;;;;;;;;;5087545;28;20050;-89
2023/09/13 01:46:19;;;;;;;62.45;28.20;;;;;;;;;;5087877;28;20493;-85
2023/09/13 01:48:46;;;;;;;61.08;28.35;;;;;;;;;;5068876;28;20032;-81
2023/09/13 01:51:14;;;;;;;61.67;28.60;;;;;;;;;;5092027;28;21727;-89
2023/09/13 01:53:46;;;;;;;56.45;27.25;;;;;;;;;;5071326;28;20024;-84
2023/09/13 01:56:12;;;;;;;51.15;25.67;;;;;;;;;;5071710;28;20210;-89
2023/09/13 01:58:38;;;;;;;53.70;27.20;;;;;;;;;;5077403;28;20073;-79
2023/09/13 02:01:04;;;;;;;54.10;28.42;;;;;;;;;;5089820;28;20173;-88
2023/09/13 02:03:30;;;;;;;55.10;27.60;;;;;;;;;;5090012;28;20173;-87
2023/09/13 02:05:56;;;;;;;58.97;27.85;;;;;;;;;;5091054;28;20043;-84
2023/09/13 02:08:22;;;;;;;51.83;25.95;;;;;;;;;;5069945;28;20035;-87
2023/09/13 02:10:48;;;;;;;58.42;29.13;;;;;;;;;;5071234;28;20173;-83
2023/09/13 02:13:16;;;;;;;61.83;28.25;;;;;;;;;;5086172;28;20098;-83
2023/09/13 02:15:42;;;;;;;55.20;26.75;;;;;;;;;;5086298;28;20241;-89
2023/09/13 02:18:11;;;;;;;59.08;29.73;;;;;;;;;;5066745;28;20115;-89
2023/09/13 02:20:36;;;;;;;56.50;26.90;;;;;;;;;;5084808;28;20081;-89
2023/09/13 02:23:05;;;;;;;57.25;28.15;;;;;;;;;;5086120;28;20062;-85
2023/09/13 02:25:36;;;;;;;56.65;26.45;;;;;;;;;;5064788;28;20128;-91
2023/09/13 02:28:04;;;;;;;55.88;28.15;;;;;;;;;;5084412;28;20460;-85
2023/09/13 02:30:30;;;;;;;59.00;27.60;;;;;;;;;;5086701;28;20099;-89
2023/09/13 02:33:01;;;;;;;52.92;27.00;;;;;;;;;;5085631;28;20040;-81
2023/09/13 02:35:27;;;;;;;52.65;27.45;;;;;;;;;;5085753;28;20028;-89
2023/09/13 02:37:55;;;;;;;51.47;24.40;;;;;;;;;;5085627;28;20032;-88
2023/09/13 02:40:21;;;;;;;47.33;24.27;;;;;;;;;;5084784;28;20032;-86
2023/09/13 02:42:47;;;;;;;45.65;24.90;;;;;;;;;;5067366;28;20592;-87
2023/09/13 02:45:13;;;;;;;52.08;26.02;;;;;;;;;;5085951;28;20199;-90
2023/09/13 02:47:39;;;;;;;51.38;25.90;;;;;;;;;;5067682;28;20039;-86
2023/09/13 02:50:06;;;;;;;47.65;25.13;;;;;;;;;;5066533;28;20024;-85
2023/09/13 02:52:32;;;;;;;45.45;23.42;;;;;;;;;;5072043;28;20031;-89
2023/09/13 02:54:59;;;;;;;53.15;27.38;;;;;;;;;;5069001;28;20379;-90
2023/09/13 02:57:25;;;;;;;68.25;31.70;;;;;;;;;;5068205;28;20127;-87
2023/09/13 02:59:51;;;;;;;77.47;36.08;;;;;;;;;;5088526;28;20043;-87
2023/09/13 03:02:17;;;;;;;72.95;36.08;;;;;;;;;;5066841;28;20089;-85
2023/09/13 03:04:43;;;;;;;73.18;36.60;;;;;;;;;;5071485;28;20077;-87
2023/09/13 03:07:10;;;;;;;85.22;41.25;;;;;;;;;;5072129;28;20036;-86
2023/09/13 03:09:38;;;;;;;90.93;41.85;;;;;;;;;;5088102;28;20032;-89
2023/09/13 03:12:07;;;;;;;90.28;40.67;;;;;;;;;;5090813;28;20039;-85
2023/09/13 03:14:35;;;;;;;82.80;41.15;;;;;;;;;;5089036;28;20732;-86
2023/09/13 03:17:02;;;;;;;89.03;41.63;;;;;;;;;;5072085;28;20028;-90
2023/09/13 03:19:29;;;;;;;92.47;42.40;;;;;;;;;;5089415;28;20047;-88
2023/09/13 03:21:55;;;;;;;86.78;39.95;;;;;;;;;;5074757;28;20035;-84
2023/09/13 03:24:21;;;;;;;94.25;43.05;;;;;;;;;;5071108;28;20892;-90
2023/09/13 03:26:47;;;;;;;100.57;45.80;;;;;;;;;;5076842;28;20020;-88
2023/09/13 03:29:13;;;;;;;100.93;45.67;;;;;;;;;;5067981;28;20377;-87
2023/09/13 03:31:39;;;;;;;106.85;46.92;;;;;;;;;;5070779;28;20084;-88
2023/09/13 03:34:08;;;;;;;114.10;48.65;;;;;;;;;;5071940;28;20372;-84
2023/09/13 03:36:34;;;;;;;102.00;46.83;;;;;;;;;;5070623;28;20039;-92
2023/09/13 03:39:03;;;;;;;109.10;46.20;;;;;;;;;;5071957;28;20032;-91
2023/09/13 03:41:30;;;;;;;106.80;46.55;;;;;;;;;;5070388;28;20063;-88
2023/09/13 03:43:56;;;;;;;115.97;48.95;;;;;;;;;;5069937;28;20031;-88
2023/09/13 03:46:22;;;;;;;112.85;49.58;;;;;;;;;;5090112;28;20047;-89
2023/09/13 03:48:53;;;;;;;114.63;48.70;;;;;;;;;;5067780;28;20024;-86
2023/09/13 03:51:19;;;;;;;105.85;47.08;;;;;;;;;;5089158;28;20073;-90
2023/09/13 03:53:45;;;;;;;108.05;46.92;;;;;;;;;;5089076;28;20028;-85
2023/09/13 03:56:11;;;;;;;104.95;47.88;;;;;;;;;;5070737;28;20032;-85
2023/09/13 03:58:38;;;;;;;117.15;52.33;;;;;;;;;;5070832;28;20050;-88
2023/09/13 04:01:04;;;;;;;117.68;53.15;;;;;;;;;;5086353;28;20040;-88
2023/09/13 04:03:32;;;;;;;121.00;51.80;;;;;;;;;;5086356;28;20562;-85
2023/09/13 04:06:01;;;;;;;147.10;54.83;;;;;;;;;;5070015;28;20055;-90
2023/09/13 04:08:28;;;;;;;178.80;59.30;;;;;;;;;;5070453;28;20032;-90
2023/09/13 04:10:54;;;;;;;183.45;64.70;;;;;;;;;;5068471;28;20051;-82
2023/09/13 04:13:22;;;;;;;216.70;67.00;;;;;;;;;;5070691;28;20433;-93
2023/09/13 04:15:48;;;;;;;188.77;64.95;;;;;;;;;;5087029;28;20051;-79
2023/09/13 04:18:17;;;;;;;237.88;70.20;;;;;;;;;;5065364;28;20644;-80
2023/09/13 04:20:45;;;;;;;218.43;66.40;;;;;;;;;;5068046;28;20047;-78
2023/09/13 04:23:11;;;;;;;217.80;69.28;;;;;;;;;;5085299;28;20027;-82
2023/09/13 04:25:37;;;;;;;240.70;76.03;;;;;;;;;;5085687;28;20059;-78
2023/09/13 04:28:03;;;;;;;203.23;70.90;;;;;;;;;;5085011;28;20051;-82
2023/09/13 04:30:29;;;;;;;217.55;72.60;;;;;;;;;;5086035;28;20036;-79
2023/09/13 04:32:55;;;;;;;206.95;69.82;;;;;;;;;;5085203;28;20047;-81
2023/09/13 04:35:23;;;;;;;195.10;67.45;;;;;;;;;;5104099;28;20030;-74
2023/09/13 04:37:49;;;;;;;191.82;67.22;;;;;;;;;;5107376;28;20040;-74
2023/09/13 04:40:17;;;;;;;196.88;66.90;;;;;;;;;;5091831;28;20058;-74
2023/09/13 04:42:56;;;;;;;187.30;68.88;;;;;;;;;;5092679;28;20062;-74
2023/09/13 04:45:22;;;;;;;187.93;67.07;;;;;;;;;;5093708;28;20047;-79
2023/09/13 04:47:49;;;;;;;194.60;69.18;;;;;;;;;;5076385;28;20048;-79
2023/09/13 04:50:15;;;;;;;204.77;69.20;;;;;;;;;;5068039;28;20031;-81
2023/09/13 04:52:41;;;;;;;174.73;62.95;;;;;;;;;;5094404;28;20091;-74
2023/09/13 04:55:09;;;;;;;186.50;68.15;;;;;;;;;;5103703;28;20046;-79
2023/09/13 04:57:38;;;;;;;199.00;68.80;;;;;;;;;;5076842;28;20029;-76
2023/09/13 05:00:10;;;;;;;192.10;65.35;;;;;;;;;;5085031;28;21628;-77
2023/09/13 05:02:37;;;;;;;220.82;72.18;;;;;;;;;;5073583;28;20025;-79
2023/09/13 05:05:03;;;;;;;219.18;69.32;;;;;;;;;;5094004;28;20354;-77
2023/09/13 05:07:29;;;;;;;204.90;67.97;;;;;;;;;;5097032;28;20049;-78
2023/09/13 05:09:57;;;;;;;202.98;68.68;;;;;;;;;;5086953;28;20411;-80
2023/09/13 05:12:23;;;;;;;203.10;67.28;;;;;;;;;;5087418;28;20055;-74
2023/09/13 05:14:51;;;;;;;186.80;66.20;;;;;;;;;;5081167;28;20036;-78
2023/09/13 05:17:20;;;;;;;195.55;65.00;;;;;;;;;;5099912;28;20028;-79
2023/09/13 05:19:48;;;;;;;181.35;63.22;;;;;;;;;;5081485;28;20016;-75
2023/09/13 05:22:16;;;;;;;197.95;65.20;;;;;;;;;;5086750;28;20048;-76
2023/09/13 05:24:42;;;;;;;189.57;64.22;;;;;;;;;;5095475;28;20043;-76
2023/09/13 05:27:11;;;;;;;189.93;62.50;;;;;;;;;;5110062;28;20023;-75
2023/09/13 05:29:37;;;;;;;195.85;64.88;;;;;;;;;;5091843;28;20017;-75
2023/09/13 05:32:03;;;;;;;206.20;65.40;;;;;;;;;;5108633;28;20050;-73
2023/09/13 05:34:29;;;;;;;200.85;65.22;;;;;;;;;;5081726;28;20039;-78
2023/09/13 05:36:55;;;;;;;181.52;60.97;;;;;;;;;;5078207;28;20028;-77
2023/09/13 05:39:21;;;;;;;180.60;62.00;;;;;;;;;;5082114;28;20042;-76
2023/09/13 05:41:49;;;;;;;207.18;62.90;;;;;;;;;;5075043;28;20020;-75
2023/09/13 05:44:22;;;;;;;173.07;58.45;;;;;;;;;;5075843;28;20059;-77
2023/09/13 05:46:48;;;;;;;152.55;55.38;;;;;;;;;;5076060;28;20095;-77
2023/09/13 05:49:14;;;;;;;141.73;54.38;;;;;;;;;;5097172;28;20056;-79
2023/09/13 05:51:41;;;;;;;140.68;54.20;;;;;;;;;;5077877;28;20092;-79
2023/09/13 05:54:07;;;;;;;137.30;51.20;;;;;;;;;;5071002;28;20093;-79
2023/09/13 05:56:33;;;;;;;146.30;52.47;;;;;;;;;;5078284;28;20499;-79
2023/09/13 05:58:59;;;;;;;111.78;47.63;;;;;;;;;;5069578;28;20024;-78
2023/09/13 06:01:25;;;;;;;111.38;46.85;;;;;;;;;;5086711;28;20036;-73
2023/09/13 06:03:53;;;;;;;103.97;45.13;;;;;;;;;;5077250;28;20036;-80
2023/09/13 06:06:21;;;;;;;105.43;44.10;;;;;;;;;;5090869;28;20480;-76
2023/09/13 06:08:47;;;;;;;101.43;43.70;;;;;;;;;;5072515;28;20038;-77
2023/09/13 06:11:15;;;;;;;86.78;41.80;;;;;;;;;;5075616;28;20036;-79
2023/09/13 06:13:41;;;;;;;77.18;36.92;;;;;;;;;;5103825;28;20020;-74
2023/09/13 06:16:09;;;;;;;81.38;39.90;;;;;;;;;;5109064;28;20053;-75
2023/09/13 06:18:36;;;;;;;75.07;37.15;;;;;;;;;;5081922;28;20123;-75
2023/09/13 06:21:03;;;;;;;81.30;38.58;;;;;;;;;;5086235;28;20505;-78
2023/09/13 06:23:36;;;;;;;69.03;37.53;;;;;;;;;;5076850;28;20028;-77
2023/09/13 06:26:02;;;;;;;;;;;;;;;;;;5085632;28;20158;-78
2023/09/13 06:28:28;;;;;;;72.07;35.95;;;;;;;;;;5075421;28;19944;-83
2023/09/13 06:30:56;;;;;;;63.75;35.38;;;;;;;;;;5077297;28;20016;-74
2023/09/13 06:33:25;;;;;;;69.72;35.38;;;;;;;;;;5093123;28;20023;-80
2023/09/13 06:35:51;;;;;;;61.05;33.63;;;;;;;;;;5097191;28;20032;-73
2023/09/13 06:38:19;;;;;;;67.25;35.35;;;;;;;;;;5078106;28;20471;-80
2023/09/13 06:40:47;;;;;;;61.92;34.70;;;;;;;;;;5089963;28;20032;-78
2023/09/13 06:43:14;;;;;;;59.90;31.88;;;;;;;;;;5071284;28;20032;-80
2023/09/13 06:45:39;;;;;;;58.78;32.60;;;;;;;;;;5070048;28;20062;-78
2023/09/13 06:48:08;;;;;;;62.38;32.55;;;;;;;;;;5070121;28;21014;-80
2023/09/13 06:50:36;;;;;;;61.10;33.92;;;;;;;;;;5083436;28;20027;-76
2023/09/13 06:53:05;;;;;;;54.38;32.70;;;;;;;;;;5083968;28;20032;-80
2023/09/13 06:55:34;;;;;;;50.25;30.35;;;;;;;;;;5080236;28;20027;-79
2023/09/13 06:58:03;;;;;;;53.38;30.02;;;;;;;;;;5071953;28;20028;-82
2023/09/13 07:00:29;;;;;;;58.95;32.08;;;;;;;;;;5075341;28;20124;-78
2023/09/13 07:02:55;;;;;;;61.38;32.92;;;;;;;;;;5077726;28;20024;-78
2023/09/13 07:05:21;;;;;;;61.75;32.50;;;;;;;;;;5092529;28;20042;-74
2023/09/13 07:07:49;;;;;;;62.47;34.72;;;;;;;;;;5107980;28;20024;-75
2023/09/13 07:10:15;;;;;;;65.80;34.55;;;;;;;;;;5094496;28;20040;-74
2023/09/13 07:12:41;;;;;;;72.68;35.55;;;;;;;;;;5104072;28;20111;-81
2023/09/13 07:15:10;;;;;;;70.13;36.60;;;;;;;;;;5079252;28;20134;-79
2023/09/13 07:17:36;;;;;;;71.35;36.63;;;;;;;;;;5074091;28;20036;-79
2023/09/13 07:20:05;;;;;;;73.70;37.50;;;;;;;;;;5076265;28;20028;-78
2023/09/13 07:22:31;;;;;;;81.13;37.85;;;;;;;;;;5095032;28;20024;-83
2023/09/13 07:24:57;;;;;;;81.72;38.83;;;;;;;;;;5079243;28;20031;-80
2023/09/13 07:27:23;;;;;;;73.13;36.95;;;;;;;;;;5076306;28;20036;-80
2023/09/13 07:29:49;;;;;;;73.22;36.97;;;;;;;;;;5075528;28;20824;-82
2023/09/13 07:32:17;;;;;;;84.85;37.50;;;;;;;;;;5096283;28;20070;-75
2023/09/13 07:34:43;;;;;;;72.68;36.47;;;;;;;;;;5093323;28;20043;-74
2023/09/13 07:37:12;;;;;;;68.00;33.63;;;;;;;;;;5092162;28;20020;-77
2023/09/13 07:39:42;;;;;;;65.05;33.25;;;;;;;;;;5109047;28;20039;-79
2023/09/13 07:42:08;;;;;;;62.92;31.67;;;;;;;;;;5084279;28;20019;-80
2023/09/13 07:44:36;;;;;;;58.03;30.23;;;;;;;;;;5079952;28;20296;-78
2023/09/13 07:47:02;;;;;;;59.47;31.13;;;;;;;;;;5091028;28;20127;-79
2023/09/13 07:49:28;;;;;;;57.20;31.88;;;;;;;;;;5074201;28;20085;-84
2023/09/13 07:51:54;;;;;;;57.92;32.22;;;;;;;;;;5074567;28;20029;-83
2023/09/13 07:54:23;;;;;;;57.00;30.13;;;;;;;;;;5074355;28;20111;-82
2023/09/13 07:56:49;;;;;;;56.28;29.80;;;;;;;;;;5094043;28;20032;-79
2023/09/13 07:59:17;;;;;;;54.60;29.35;;;;;;;;;;5094215;28;20040;-76
2023/09/13 08:01:43;;;;;;;48.53;28.15;;;;;;;;;;5090731;28;20084;-75
2023/09/13 08:04:11;;;;;;;51.75;28.77;;;;;;;;;;5092826;28;20035;-82
2023/09/13 08:06:41;;;;;;;45.92;27.35;;;;;;;;;;5106701;28;20136;-75
2023/09/13 08:09:07;;;;;;;50.10;30.15;;;;;;;;;;5082292;28;20020;-76
2023/09/13 08:11:33;;;;;;;50.42;27.58;;;;;;;;;;5082782;28;20035;-75
2023/09/13 08:13:59;;;;;;;44.60;25.00;;;;;;;;;;5101655;28;20027;-76
2023/09/13 08:16:26;;;;;;;40.83;23.20;;;;;;;;;;5087288;28;20040;-77
2023/09/13 08:18:52;;;;;;;42.10;22.95;;;;;;;;;;5081433;28;20039;-77
2023/09/13 08:21:18;;;;;;;36.00;21.30;;;;;;;;;;5112013;28;20036;-74
2023/09/13 08:23:44;;;;;;;32.97;19.85;;;;;;;;;;5109114;28;20031;-74
2023/09/13 08:26:12;;;;;;;38.67;21.60;;;;;;;;;;5085254;28;20039;-83
2023/09/13 08:28:38;;;;;;;34.70;21.48;;;;;;;;;;5065654;28;20056;-82
2023/09/13 08:31:06;;;;;;;27.13;18.15;;;;;;;;;;5069224;28;20886;-80
2023/09/13 08:33:32;;;;;;;37.45;20.13;;;;;;;;;;5068309;28;20036;-80
2023/09/13 08:35:58;;;;;;;28.00;17.75;;;;;;;;;;5068144;28;20032;-78
2023/09/13 08:38:24;;;;;;;28.45;19.08;;;;;;;;;;5068444;28;20152;-83
2023/09/13 08:40:54;;;;;;;31.02;18.35;;;;;;;;;;5067056;28;20032;-83
2023/09/13 08:43:20;;;;;;;32.72;19.00;;;;;;;;;;5112622;22;20044;-80
2023/09/13 08:45:46;;;;;;;28.70;19.52;;;;;;;;;;5067117;28;20020;-85
2023/09/13 08:48:13;;;;;;;33.78;19.63;;;;;;;;;;5066195;28;20180;-84
2023/09/13 08:50:42;;;;;;;36.30;22.83;;;;;;;;;;5061674;28;20032;-82
2023/09/13 08:53:08;;;;;;;32.78;20.83;;;;;;;;;;5065427;28;20035;-85
2023/09/13 08:55:37;;;;;;;27.98;18.70;;;;;;;;;;5066530;28;20032;-84
2023/09/13 08:58:06;;;;;;;30.30;20.45;;;;;;;;;;5062057;28;20036;-80
2023/09/13 09:00:37;;;;;;;27.38;18.05;;;;;;;;;;5063701;28;20109;-81
2023/09/13 09:03:05;;;;;;;30.33;17.57;;;;;;;;;;5066422;28;20108;-81
2023/09/13 09:05:32;;;;;;;28.27;16.88;;;;;;;;;;5065869;28;20119;-83
2023/09/13 09:07:59;;;;;;;27.25;16.20;;;;;;;;;;5082622;28;20031;-82
2023/09/13 09:10:25;;;;;;;27.20;14.80;;;;;;;;;;5066541;28;20059;-82
2023/09/13 09:12:52;;;;;;;26.70;15.48;;;;;;;;;;5064083;28;20032;-84
2023/09/13 09:15:19;;;;;;;28.85;15.27;;;;;;;;;;5084485;28;20189;-84
2023/09/13 09:17:47;;;;;;;26.58;15.85;;;;;;;;;;5082513;28;20646;-85
2023/09/13 09:20:13;;;;;;;22.83;15.25;;;;;;;;;;5082071;28;20082;-81
2023/09/13 09:22:39;;;;;;;27.85;14.95;;;;;;;;;;5064525;28;20396;-82
2023/09/13 09:25:13;;;;;;;27.83;15.35;;;;;;;;;;5080802;28;20044;-82
2023/09/13 09:27:39;;;;;;;24.67;13.15;;;;;;;;;;5064200;28;20054;-86
2023/09/13 09:30:06;;;;;;;24.05;11.77;;;;;;;;;;5063225;28;20803;-86
2023/09/13 09:32:33;;;;;;;23.02;12.23;;;;;;;;;;5083186;28;20038;-85
2023/09/13 09:34:59;;;;;;;21.27;12.18;;;;;;;;;;5064328;28;20399;-83
2023/09/13 09:37:32;;;;;;;21.55;11.25;;;;;;;;;;5082880;28;20115;-83
2023/09/13 09:39:58;;;;;;;16.83;11.13;;;;;;;;;;5082907;28;20082;-80
2023/09/13 09:42:25;;;;;;;18.83;10.88;;;;;;;;;;5064730;28;20081;-83
2023/09/13 09:44:51;;;;;;;18.60;11.65;;;;;;;;;;5065568;28;20028;-83
2023/09/13 09:47:18;;;;;;;23.38;11.13;;;;;;;;;;5083562;28;20081;-81
2023/09/13 09:49:46;;;;;;;20.73;10.50;;;;;;;;;;5065022;28;20020;-81
2023/09/13 09:52:12;;;;;;;21.35;12.60;;;;;;;;;;5068117;28;20533;-83
2023/09/13 09:54:41;;;;;;;16.42;10.02;;;;;;;;;;5068431;28;20077;-81
2023/09/13 09:57:08;;;;;;;19.67;11.07;;;;;;;;;;5065103;28;20032;-83
2023/09/13 09:59:37;;;;;;;16.88;10.20;;;;;;;;;;5071172;28;20027;-82
2023/09/13 10:02:03;;;;;;;16.70;10.73;;;;;;;;;;5067454;28;20118;-80
2023/09/13 10:04:29;;;;;;;17.45;10.23;;;;;;;;;;5089441;28;20064;-82
2023/09/13 10:07:00;;;;;;;21.27;10.88;;;;;;;;;;5090933;28;20050;-81
2023/09/13 10:09:44;;;;;;;20.40;10.07;;;;;;;;;;5068505;28;20069;-83
2023/09/13 10:12:11;;;;;;;15.43;8.32;;;;;;;;;;5072618;28;20024;-82
2023/09/13 10:14:39;;;;;;;12.75;7.35;;;;;;;;;;5086540;28;20401;-83
2023/09/13 10:17:09;;;;;;;16.08;9.40;;;;;;;;;;5085402;28;20118;-81
2023/09/13 10:19:35;;;;;;;14.75;8.20;;;;;;;;;;5084458;28;20488;-83
2023/09/13 10:22:01;;;;;;;14.73;7.43;;;;;;;;;;5087705;28;20380;-82
2023/09/13 10:24:38;;;;;;;13.25;6.72;;;;;;;;;;5085444;28;20028;-81
2023/09/13 10:27:07;;;;;;;11.40;7.80;;;;;;;;;;5084450;28;20028;-81
2023/09/13 10:29:33;;;;;;;13.80;8.20;;;;;;;;;;5069208;28;20062;-84
2023/09/13 10:32:02;;;;;;;13.57;8.00;;;;;;;;;;5067510;28;20055;-83
2023/09/13 10:34:32;;;;;;;12.38;7.35;;;;;;;;;;5069970;28;20043;-79
2023/09/13 10:37:34;;;;;;;15.10;7.72;;;;;;;;;;5066649;28;20036;-81
2023/09/13 10:40:13;;;;;;;18.00;7.60;;;;;;;;;;4977643;28;20042;-82
2023/09/13 10:42:40;;;;;;;17.23;8.20;;;;;;;;;;5052892;28;20317;-80
2023/09/13 10:45:08;;;;;;;12.77;7.80;;;;;;;;;;5066900;28;20037;-82
2023/09/13 10:47:39;;;;;;;11.98;7.47;;;;;;;;;;5067449;28;20406;-80
2023/09/13 10:50:07;;;;;;;15.18;8.48;;;;;;;;;;5083571;28;20139;-82
2023/09/13 10:52:35;;;;;;;13.48;7.68;;;;;;;;;;5069005;28;20170;-82
2023/09/13 10:55:04;;;;;;;11.73;7.75;;;;;;;;;;5085167;28;20086;-83
2023/09/13 10:57:33;;;;;;;12.23;7.85;;;;;;;;;;5085644;28;20024;-84
2023/09/13 11:00:03;;;;;;;13.35;7.63;;;;;;;;;;5086129;28;20039;-83
2023/09/13 11:02:30;;;;;;;12.85;7.55;;;;;;;;;;5065182;28;20446;-81
2023/09/13 11:04:55;;;;;;;14.43;8.02;;;;;;;;;;5087496;28;20058;-81
2023/09/13 11:07:23;;;;;;;11.32;6.60;;;;;;;;;;5086369;28;21249;-83
2023/09/13 11:09:51;;;;;;;14.98;6.68;;;;;;;;;;5087349;28;20028;-86
2023/09/13 11:12:17;;;;;;;12.85;7.32;;;;;;;;;;5088582;28;20114;-83
2023/09/13 11:14:50;;;;;;;13.50;7.07;;;;;;;;;;5072794;28;20173;-85
2023/09/13 11:17:37;;;;;;;11.05;6.05;;;;;;;;;;5071021;28;21657;-84
2023/09/13 11:20:36;;;;;;;10.05;6.40;;;;;;;;;;5069809;28;20039;-82
2023/09/13 11:23:03;;;;;;;10.07;5.45;;;;;;;;;;5085043;28;20039;-86
2023/09/13 11:25:36;;;;;;;10.88;6.97;;;;;;;;;;5072067;28;20472;-81
2023/09/13 11:28:01;;;;;;;;;;;;;;;;;;5066817;28;20090;-86
2023/09/13 11:30:47;;;;;;;9.60;5.90;;;;;;;;;;5069775;28;19971;-81
2023/09/13 11:33:14;;;;;;;10.55;6.38;;;;;;;;;;5070283;28;20024;-86
2023/09/13 11:35:40;;;;;;;7.75;5.25;;;;;;;;;;5069506;28;20024;-84
2023/09/13 11:38:08;;;;;;;9.50;5.78;;;;;;;;;;5069423;28;20032;-83
2023/09/13 11:40:34;;;;;;;7.90;5.32;;;;;;;;;;5068029;28;20105;-84
2023/09/13 11:43:01;;;;;;;10.73;5.82;;;;;;;;;;5070310;28;20116;-84
2023/09/13 11:45:30;;;;;;;10.25;6.13;;;;;;;;;;5085560;28;20039;-86
2023/09/13 11:47:56;;;;;;;10.90;6.63;;;;;;;;;;5087776;28;20116;-87
2023/09/13 11:50:25;;;;;;;10.50;5.82;;;;;;;;;;5069396;28;20531;-85
2023/09/13 11:53:05;;;;;;;8.18;5.85;;;;;;;;;;5066542;28;20111;-87
2023/09/13 11:55:31;;;;;;;9.80;5.70;;;;;;;;;;5066321;28;20085;-82
2023/09/13 11:57:59;;;;;;;10.38;6.43;;;;;;;;;;5088110;28;20123;-87
2023/09/13 12:00:26;;;;;;;8.60;6.20;;;;;;;;;;5067617;28;20025;-82
2023/09/13 12:02:54;;;;;;;11.85;6.63;;;;;;;;;;5071327;28;20095;-84
2023/09/13 12:05:20;;;;;;;5.10;2.72;;;;;;;;;;5085913;28;20024;-79
2023/09/13 12:07:46;;;;;;;3.20;2.40;;;;;;;;;;5069816;28;20032;-80
2023/09/13 12:10:12;;;;;;;3.40;2.42;;;;;;;;;;5070050;28;20028;-85
2023/09/13 12:12:41;;;;;;;3.92;1.80;;;;;;;;;;5094455;28;20088;-81
2023/09/13 12:15:14;;;;;;;2.20;1.52;;;;;;;;;;5109838;28;20047;-74
2023/09/13 12:17:40;;;;;;;2.35;1.75;;;;;;;;;;5091196;28;20139;-75
2023/09/13 12:20:10;;;;;;;10.07;2.22;;;;;;;;;;5093317;28;20016;-74
2023/09/13 12:22:40;;;;;;;3.50;2.33;;;;;;;;;;5110436;28;20028;-75
2023/09/13 12:25:17;;;;;;;8.05;2.08;;;;;;;;;;5092011;28;20021;-74
2023/09/13 12:27:46;;;;;;;4.95;2.75;;;;;;;;;;5095788;28;20056;-75
2023/09/13 12:30:18;;;;;;;4.55;2.97;;;;;;;;;;5109336;28;20008;-75
2023/09/13 12:32:48;;;;;;;5.03;3.88;;;;;;;;;;5089636;28;20048;-75
2023/09/13 12:35:16;;;;;;;6.05;5.20;;;;;;;;;;5091101;28;20032;-75
2023/09/13 12:37:42;;;;;;;7.25;5.78;;;;;;;;;;5111859;28;20028;-75
2023/09/13 12:40:14;;;;;;;12.23;7.72;;;;;;;;;;5092615;28;20016;-75
2023/09/13 12:42:40;;;;;;;;;;;;;;;;;;5092460;28;20024;-75
2023/09/13 12:45:07;;;;;;;12.38;8.45;;;;;;;;;;5092423;28;19908;-75
2023/09/13 12:47:35;;;;;;;15.88;10.55;;;;;;;;;;5090403;28;20044;-75
2023/09/13 12:50:02;;;;;;;17.13;11.07;;;;;;;;;;5109325;28;20012;-74
2023/09/13 12:52:28;;;;;;;20.10;13.45;;;;;;;;;;5092513;28;20107;-75
2023/09/13 12:54:57;;;;;;;25.98;15.75;;;;;;;;;;5111875;28;20019;-75
2023/09/13 12:57:23;;;;;;;28.92;19.25;;;;;;;;;;5110285;28;20050;-75
2023/09/13 12:59:50;;;;;;;35.72;22.65;;;;;;;;;;5092108;28;20024;-75
2023/09/13 13:02:19;;;;;;;50.45;28.25;;;;;;;;;;5090422;28;20020;-75
2023/09/13 13:04:46;;;;;;;59.13;32.67;;;;;;;;;;5109535;28;20035;-75
2023/09/13 13:07:28;;;;;;;77.07;38.45;;;;;;;;;;5091430;28;20043;-75
2023/09/13 13:10:02;;;;;;;69.65;37.53;;;;;;;;;;5090494;28;20039;-75
2023/09/13 13:12:28;;;;;;;77.47;41.63;;;;;;;;;;5110891;28;20050;-76
2023/09/13 13:14:54;;;;;;;83.05;42.78;;;;;;;;;;5089353;28;20046;-74
2023/09/13 13:17:22;;;;;;;102.32;50.35;;;;;;;;;;5109327;28;20065;-75
2023/09/13 13:19:49;;;;;;;101.70;46.85;;;;;;;;;;5109622;28;20020;-75
2023/09/13 13:22:17;;;;;;;97.78;48.28;;;;;;;;;;5109433;28;20042;-75
2023/09/13 13:24:43;;;;;;;115.13;49.78;;;;;;;;;;5109314;28;20012;-75
2023/09/13 13:27:09;;;;;;;106.38;50.92;;;;;;;;;;5089507;28;20035;-74
2023/09/13 13:29:36;;;;;;;105.00;52.30;;;;;;;;;;5089818;28;20047;-75
2023/09/13 13:32:02;;;;;;;100.93;49.08;;;;;;;;;;5089817;28;20095;-75
2023/09/13 13:34:28;;;;;;;111.03;53.22;;;;;;;;;;5107892;28;20028;-75
2023/09/13 13:36:54;;;;;;;102.90;54.95;;;;;;;;;;5089919;28;20034;-75
2023/09/13 13:39:20;;;;;;;89.20;51.38;;;;;;;;;;5089864;28;20205;-75
2023/09/13 13:41:46;;;;;;;132.45;58.78;;;;;;;;;;5091791;28;20107;-75
2023/09/13 13:44:15;;;;;;;112.15;57.78;;;;;;;;;;5108964;28;20055;-75
2023/09/13 13:46:44;;;;;;;101.40;55.88;;;;;;;;;;5111319;28;20063;-75
2023/09/13 13:49:17;;;;;;;107.00;56.55;;;;;;;;;;5109048;28;20076;-75
2023/09/13 13:51:49;;;;;;;91.88;52.75;;;;;;;;;;5108194;28;20032;-75
2023/09/13 13:54:15;;;;;;;86.15;48.63;;;;;;;;;;5088927;28;20039;-74
2023/09/13 13:56:42;;;;;;;70.57;42.47;;;;;;;;;;5108887;28;20079;-74
2023/09/13 13:59:12;;;;;;;73.03;41.63;;;;;;;;;;5106727;28;20017;-75
2023/09/13 14:01:40;;;;;;;69.50;39.03;;;;;;;;;;5089829;28;20024;-75
2023/09/13 14:04:06;;;;;;;49.50;30.90;;;;;;;;;;5090244;28;20047;-75
2023/09/13 14:06:32;;;;;;;39.17;27.70;;;;;;;;;;5092794;28;20035;-75
2023/09/13 14:09:03;;;;;;;32.50;23.67;;;;;;;;;;5092100;28;20080;-76
2023/09/13 14:11:29;;;;;;;32.47;20.23;;;;;;;;;;5110393;28;20027;-75
2023/09/13 14:13:55;;;;;;;21.27;14.30;;;;;;;;;;5089715;28;20088;-74
2023/09/13 14:16:21;;;;;;;23.67;13.13;;;;;;;;;;5091831;28;20051;-75
2023/09/13 14:18:47;;;;;;;18.38;11.20;;;;;;;;;;5092020;28;20035;-74
2023/09/13 14:21:13;;;;;;;14.90;9.88;;;;;;;;;;5109598;28;20043;-75